createdAt,value
2017-06-13T00:00:27.119Z,0.00
2017-06-13T00:01:27.134Z,0.00
2017-06-13T00:02:27.147Z,0.00
2017-06-13T00:03:27.141Z,0.00
2017-06-13T00:04:27.063Z,0.00
2017-06-13T00:05:27.121Z,0.00
2017-06-13T00:06:27.148Z,0.00
2017-06-13T00:07:27.223Z,0.00
2017-06-13T00:08:27.119Z,0.00
2017-06-13T00:09:27.122Z,0.00
2017-06-13T00:10:27.123Z,0.00
2017-06-13T00:11:27.127Z,0.00
2017-06-13T00:12:27.126Z,0.00
2017-06-13T00:13:27.104Z,0.00
2017-06-13T00:14:27.125Z,0.00
2017-06-13T00:15:27.213Z,0.00
2017-06-13T00:16:27.130Z,0.00
2017-06-13T00:17:27.139Z,0.00
2017-06-13T00:18:27.066Z,0.00
2017-06-13T00:19:27.140Z,0.00
2017-06-13T00:20:27.138Z,0.00
2017-06-13T00:21:27.139Z,0.00
2017-06-13T00:22:27.140Z,0.00
2017-06-13T00:23:27.146Z,0.00
2017-06-13T00:24:27.145Z,0.00
2017-06-13T00:25:27.141Z,0.00
2017-06-13T00:26:27.143Z,0.00
2017-06-13T00:27:27.150Z,0.00
2017-06-13T00:28:27.159Z,0.00
2017-06-13T00:29:27.162Z,0.00
2017-06-13T00:30:27.095Z,0.00
2017-06-13T00:31:27.134Z,0.00
2017-06-13T00:32:27.134Z,0.00
2017-06-13T00:33:27.132Z,0.00
2017-06-13T00:34:27.171Z,0.00
2017-06-13T00:35:27.162Z,0.00
2017-06-13T00:36:27.172Z,0.00
2017-06-13T00:37:27.148Z,0.00
2017-06-13T00:38:27.152Z,0.00
2017-06-13T00:39:27.152Z,0.00
2017-06-13T00:40:27.153Z,0.00
2017-06-13T00:41:27.141Z,0.00
2017-06-13T00:42:27.160Z,0.00
2017-06-13T00:43:27.151Z,0.00
2017-06-13T00:44:27.155Z,0.00
2017-06-13T00:45:27.155Z,0.00
2017-06-13T00:46:27.155Z,0.00
2017-06-13T00:47:27.165Z,0.00
2017-06-13T00:48:27.176Z,0.00
2017-06-13T00:49:27.170Z,0.00
2017-06-13T00:50:27.089Z,0.00
2017-06-13T00:51:27.098Z,0.00
2017-06-13T00:52:27.157Z,0.00
2017-06-13T00:53:27.183Z,0.00
2017-06-13T00:54:27.096Z,0.00
2017-06-13T00:55:27.165Z,0.00
2017-06-13T00:56:27.183Z,0.00
2017-06-13T00:57:27.161Z,0.00
2017-06-13T00:58:27.162Z,0.00
2017-06-13T00:59:27.163Z,0.00
2017-06-13T01:00:27.163Z,0.00
2017-06-13T01:01:27.166Z,0.00
2017-06-13T01:02:27.166Z,0.00
2017-06-13T01:03:27.165Z,0.00
2017-06-13T01:04:27.162Z,0.00
2017-06-13T01:05:27.155Z,0.00
2017-06-13T01:06:27.169Z,0.00
2017-06-13T01:07:27.165Z,0.00
2017-06-13T01:08:27.169Z,0.00
2017-06-13T01:09:27.168Z,0.00
2017-06-13T01:10:27.166Z,0.00
2017-06-13T01:11:27.139Z,0.00
2017-06-13T01:12:27.170Z,0.00
2017-06-13T01:13:27.166Z,0.00
2017-06-13T01:14:27.167Z,0.00
2017-06-13T01:15:27.152Z,0.00
2017-06-13T01:16:27.174Z,0.00
2017-06-13T01:17:27.159Z,0.00
2017-06-13T01:18:27.158Z,0.00
2017-06-13T01:19:27.162Z,0.00
2017-06-13T01:20:27.163Z,0.00
2017-06-13T01:21:27.162Z,0.00
2017-06-13T01:22:27.160Z,0.00
2017-06-13T01:23:27.162Z,0.00
2017-06-13T01:24:27.163Z,0.00
2017-06-13T01:25:27.159Z,0.00
2017-06-13T01:26:27.169Z,0.00
2017-06-13T01:27:27.113Z,0.00
2017-06-13T01:28:27.116Z,0.00
2017-06-13T01:29:27.187Z,0.00
2017-06-13T01:30:27.270Z,0.00
2017-06-13T01:31:27.161Z,0.00
2017-06-13T01:32:27.110Z,0.00
2017-06-13T01:33:27.172Z,0.00
2017-06-13T01:34:27.195Z,0.00
2017-06-13T01:35:27.194Z,0.00
2017-06-13T01:36:27.135Z,0.00
2017-06-13T01:37:27.197Z,0.00
2017-06-13T01:38:27.194Z,0.00
2017-06-13T01:39:27.190Z,0.00
2017-06-13T01:40:27.186Z,0.00
2017-06-13T01:41:27.199Z,0.00
2017-06-13T01:42:27.189Z,0.00
2017-06-13T01:43:27.189Z,0.00
2017-06-13T01:44:27.190Z,0.00
2017-06-13T01:45:27.189Z,0.00
2017-06-13T01:46:27.204Z,0.00
2017-06-13T01:47:27.190Z,0.00
2017-06-13T01:48:27.172Z,0.00
2017-06-13T01:49:27.191Z,0.00
2017-06-13T01:50:27.120Z,0.00
2017-06-13T01:51:27.171Z,0.00
2017-06-13T01:52:27.176Z,0.00
2017-06-13T01:53:27.121Z,0.00
2017-06-13T01:54:27.173Z,0.00
2017-06-13T01:55:27.216Z,0.00
2017-06-13T01:56:27.119Z,0.00
2017-06-13T01:57:27.127Z,0.00
2017-06-13T01:58:27.193Z,0.00
2017-06-13T01:59:27.189Z,0.00
2017-06-13T02:00:27.198Z,0.00
2017-06-13T02:01:27.199Z,0.00
2017-06-13T02:02:27.200Z,0.00
2017-06-13T02:03:27.196Z,0.00
2017-06-13T02:04:27.197Z,0.00
2017-06-13T02:05:27.197Z,0.00
2017-06-13T02:06:27.200Z,0.00
2017-06-13T02:07:27.201Z,1.00
2017-06-13T02:08:27.212Z,1.00
2017-06-13T02:09:27.200Z,1.00
2017-06-13T02:10:27.215Z,1.00
2017-06-13T02:11:27.214Z,1.00
2017-06-13T02:12:27.201Z,1.00
2017-06-13T02:13:27.200Z,1.00
2017-06-13T02:14:27.217Z,1.00
2017-06-13T02:15:27.216Z,1.00
2017-06-13T02:16:27.219Z,1.00
2017-06-13T02:17:27.206Z,1.00
2017-06-13T02:18:27.204Z,2.00
2017-06-13T02:19:27.153Z,2.00
2017-06-13T02:20:27.222Z,2.00
2017-06-13T02:21:27.220Z,2.00
2017-06-13T02:22:27.140Z,2.00
2017-06-13T02:23:27.216Z,3.00
2017-06-13T02:24:27.234Z,3.00
2017-06-13T02:25:27.145Z,4.00
2017-06-13T02:26:27.161Z,4.00
2017-06-13T02:27:27.147Z,4.00
2017-06-13T02:28:27.224Z,5.00
2017-06-13T02:29:27.232Z,5.00
2017-06-13T02:30:27.149Z,6.00
2017-06-13T02:31:27.213Z,7.00
2017-06-13T02:32:27.228Z,7.00
2017-06-13T02:33:27.236Z,8.00
2017-06-13T02:34:27.242Z,10.00
2017-06-13T02:35:27.229Z,11.00
2017-06-13T02:36:27.223Z,12.00
2017-06-13T02:37:27.153Z,13.00
2017-06-13T02:38:27.153Z,15.00
2017-06-13T02:39:27.167Z,16.00
2017-06-13T02:40:27.202Z,18.00
2017-06-13T02:41:27.155Z,20.00
2017-06-13T02:42:27.222Z,22.00
2017-06-13T02:43:27.241Z,25.00
2017-06-13T02:44:27.243Z,27.00
2017-06-13T02:45:27.205Z,30.00
2017-06-13T02:46:27.232Z,32.00
2017-06-13T02:47:27.223Z,36.00
2017-06-13T02:48:27.241Z,41.00
2017-06-13T02:49:27.240Z,47.00
2017-06-13T02:50:27.222Z,52.00
2017-06-13T02:51:27.237Z,55.00
2017-06-13T02:52:27.154Z,59.00
2017-06-13T02:53:27.245Z,66.00
2017-06-13T02:54:27.249Z,72.00
2017-06-13T02:55:27.157Z,76.00
2017-06-13T02:56:27.233Z,81.00
2017-06-13T02:57:27.239Z,84.00
2017-06-13T02:58:27.227Z,86.00
2017-06-13T02:59:27.222Z,87.00
2017-06-13T03:00:27.231Z,87.00
2017-06-13T03:01:27.227Z,88.00
2017-06-13T03:02:27.231Z,89.00
2017-06-13T03:03:27.228Z,90.00
2017-06-13T03:04:27.231Z,93.00
2017-06-13T03:05:27.232Z,97.00
2017-06-13T03:06:27.245Z,102.00
2017-06-13T03:07:27.231Z,104.00
2017-06-13T03:08:27.165Z,104.00
2017-06-13T03:09:27.261Z,106.00
2017-06-13T03:10:27.249Z,112.00
2017-06-13T03:11:27.214Z,126.00
2017-06-13T03:12:27.168Z,144.00
2017-06-13T03:13:27.258Z,161.00
2017-06-13T03:14:27.240Z,178.00
2017-06-13T03:15:27.236Z,196.00
2017-06-13T03:16:27.257Z,220.00
2017-06-13T03:17:27.170Z,241.00
2017-06-13T03:18:27.262Z,254.00
2017-06-13T03:19:27.166Z,270.00
2017-06-13T03:20:27.255Z,291.00
2017-06-13T03:21:27.177Z,301.00
2017-06-13T03:22:27.260Z,300.00
2017-06-13T03:23:27.251Z,314.00
2017-06-13T03:24:27.255Z,323.00
2017-06-13T03:25:27.175Z,345.00
2017-06-13T03:26:27.247Z,370.00
2017-06-13T03:27:27.269Z,403.00
2017-06-13T03:28:27.243Z,438.00
2017-06-13T03:29:27.258Z,459.00
2017-06-13T03:30:27.242Z,492.00
2017-06-13T03:31:27.247Z,530.00
2017-06-13T03:32:27.245Z,580.00
2017-06-13T03:33:27.247Z,642.00
2017-06-13T03:34:27.246Z,686.00
2017-06-13T03:35:27.246Z,711.00
2017-06-13T03:36:27.245Z,765.00
2017-06-13T03:37:27.255Z,816.00
2017-06-13T03:38:27.182Z,788.00
2017-06-13T03:39:27.273Z,790.00
2017-06-13T03:40:27.188Z,866.00
2017-06-13T03:41:27.264Z,942.00
2017-06-13T03:42:27.274Z,967.00
2017-06-13T03:43:27.179Z,992.00
2017-06-13T03:44:27.206Z,999.00
2017-06-13T03:45:27.227Z,999.00
2017-06-13T03:46:27.275Z,999.00
2017-06-13T03:47:27.203Z,999.00
2017-06-13T03:48:27.255Z,940.00
2017-06-13T03:49:27.254Z,893.00
2017-06-13T03:50:27.254Z,839.00
2017-06-13T03:51:27.255Z,834.00
2017-06-13T03:52:27.269Z,865.00
2017-06-13T03:53:27.252Z,940.00
2017-06-13T03:54:27.260Z,992.00
2017-06-13T03:55:27.254Z,999.00
2017-06-13T03:56:27.256Z,999.00
2017-06-13T03:57:27.264Z,999.00
2017-06-13T03:58:27.242Z,999.00
2017-06-13T03:59:27.245Z,999.00
2017-06-13T04:00:27.248Z,999.00
2017-06-13T04:01:27.247Z,999.00
2017-06-13T04:02:27.249Z,999.00
2017-06-13T04:03:27.235Z,999.00
2017-06-13T04:04:27.248Z,999.00
2017-06-13T04:05:27.248Z,999.00
2017-06-13T04:06:27.250Z,999.00
2017-06-13T04:07:27.250Z,999.00
2017-06-13T04:08:27.249Z,999.00
2017-06-13T04:09:27.251Z,999.00
2017-06-13T04:10:27.249Z,999.00
2017-06-13T04:11:27.253Z,999.00
2017-06-13T04:12:27.247Z,999.00
2017-06-13T04:13:27.353Z,999.00
2017-06-13T04:14:27.252Z,999.00
2017-06-13T04:15:27.250Z,999.00
2017-06-13T04:16:27.256Z,999.00
2017-06-13T04:17:27.252Z,999.00
2017-06-13T04:18:27.267Z,999.00
2017-06-13T04:19:27.242Z,999.00
2017-06-13T04:20:27.269Z,999.00
2017-06-13T04:21:27.272Z,999.00
2017-06-13T04:22:27.271Z,999.00
2017-06-13T04:23:27.269Z,999.00
2017-06-13T04:24:27.226Z,999.00
2017-06-13T04:25:27.276Z,999.00
2017-06-13T04:26:27.269Z,999.00
2017-06-13T04:27:27.278Z,999.00
2017-06-13T04:28:27.291Z,999.00
2017-06-13T04:29:27.215Z,999.00
2017-06-13T04:30:27.296Z,999.00
2017-06-13T04:31:27.291Z,999.00
2017-06-13T04:32:27.250Z,999.00
2017-06-13T04:33:27.299Z,999.00
2017-06-13T04:34:27.270Z,999.00
2017-06-13T04:35:27.315Z,999.00
2017-06-13T04:36:27.297Z,999.00
2017-06-13T04:37:27.297Z,999.00
2017-06-13T04:38:27.298Z,999.00
2017-06-13T04:39:27.283Z,999.00
2017-06-13T04:40:27.258Z,999.00
2017-06-13T04:41:27.308Z,999.00
2017-06-13T04:42:27.212Z,999.00
2017-06-13T04:43:27.210Z,999.00
2017-06-13T04:44:27.280Z,999.00
2017-06-13T04:45:27.301Z,999.00
2017-06-13T04:46:27.313Z,999.00
2017-06-13T04:47:27.220Z,999.00
2017-06-13T04:48:27.308Z,999.00
2017-06-13T04:49:27.245Z,999.00
2017-06-13T04:50:27.261Z,999.00
2017-06-13T04:51:27.311Z,999.00
2017-06-13T04:52:27.212Z,999.00
2017-06-13T04:53:27.193Z,999.00
2017-06-13T04:54:27.213Z,999.00
2017-06-13T04:55:27.250Z,999.00
2017-06-13T04:56:27.313Z,999.00
2017-06-13T04:57:27.203Z,999.00
2017-06-13T04:58:27.217Z,999.00
2017-06-13T04:59:27.287Z,999.00
2017-06-13T05:00:27.291Z,999.00
2017-06-13T05:01:27.301Z,999.00
2017-06-13T05:02:27.293Z,999.00
2017-06-13T05:03:27.306Z,999.00
2017-06-13T05:04:27.294Z,999.00
2017-06-13T05:05:27.298Z,999.00
2017-06-13T05:06:27.398Z,999.00
2017-06-13T05:07:27.293Z,999.00
2017-06-13T05:08:27.294Z,999.00
2017-06-13T05:09:27.284Z,999.00
2017-06-13T05:10:27.279Z,999.00
2017-06-13T05:11:27.285Z,999.00
2017-06-13T05:12:27.311Z,999.00
2017-06-13T05:13:27.284Z,999.00
2017-06-13T05:14:27.285Z,999.00
2017-06-13T05:15:27.286Z,999.00
2017-06-13T05:16:27.287Z,999.00
2017-06-13T05:17:27.286Z,999.00
2017-06-13T05:18:27.285Z,999.00
2017-06-13T05:19:27.313Z,999.00
2017-06-13T05:20:27.301Z,999.00
2017-06-13T05:21:27.323Z,999.00
2017-06-13T05:22:27.243Z,999.00
2017-06-13T05:23:27.242Z,999.00
2017-06-13T05:24:27.324Z,999.00
2017-06-13T05:25:27.323Z,999.00
2017-06-13T05:26:27.235Z,999.00
2017-06-13T05:27:27.328Z,999.00
2017-06-13T05:28:27.240Z,999.00
2017-06-13T05:29:27.305Z,999.00
2017-06-13T05:30:27.308Z,999.00
2017-06-13T05:31:27.306Z,999.00
2017-06-13T05:32:27.305Z,999.00
2017-06-13T05:33:27.306Z,999.00
2017-06-13T05:34:27.310Z,999.00
2017-06-13T05:35:27.310Z,999.00
2017-06-13T05:36:27.309Z,999.00
2017-06-13T05:37:27.391Z,999.00
2017-06-13T05:38:27.309Z,999.00
2017-06-13T05:39:27.313Z,999.00
2017-06-13T05:40:27.315Z,999.00
2017-06-13T05:41:27.315Z,999.00
2017-06-13T05:42:27.423Z,999.00
2017-06-13T05:43:27.315Z,999.00
2017-06-13T05:44:27.315Z,999.00
2017-06-13T05:45:27.317Z,999.00
2017-06-13T05:46:27.319Z,999.00
2017-06-13T05:47:27.315Z,999.00
2017-06-13T05:48:27.323Z,999.00
2017-06-13T05:49:27.241Z,999.00
2017-06-13T05:50:27.233Z,999.00
2017-06-13T05:51:27.320Z,999.00
2017-06-13T05:52:27.324Z,999.00
2017-06-13T05:53:27.242Z,999.00
2017-06-13T05:54:27.245Z,999.00
2017-06-13T05:55:27.277Z,999.00
2017-06-13T05:56:27.235Z,999.00
2017-06-13T05:57:27.278Z,999.00
2017-06-13T05:58:27.234Z,999.00
2017-06-13T05:59:27.247Z,999.00
2017-06-13T06:00:27.321Z,999.00
2017-06-13T06:01:27.328Z,999.00
2017-06-13T06:02:27.341Z,999.00
2017-06-13T06:03:27.328Z,999.00
2017-06-13T06:04:27.326Z,999.00
2017-06-13T06:05:27.334Z,999.00
2017-06-13T06:06:27.301Z,999.00
2017-06-13T06:07:27.332Z,999.00
2017-06-13T06:08:27.329Z,999.00
2017-06-13T06:09:27.308Z,999.00
2017-06-13T06:10:27.354Z,999.00
2017-06-13T06:11:27.307Z,999.00
2017-06-13T06:12:27.264Z,999.00
2017-06-13T06:13:27.351Z,999.00
2017-06-13T06:14:27.349Z,999.00
2017-06-13T06:15:27.327Z,999.00
2017-06-13T06:16:27.329Z,999.00
2017-06-13T06:17:27.358Z,999.00
2017-06-13T06:18:27.334Z,999.00
2017-06-13T06:19:27.236Z,999.00
2017-06-13T06:20:27.258Z,999.00
2017-06-13T06:21:27.242Z,999.00
2017-06-13T06:22:27.312Z,999.00
2017-06-13T06:23:27.263Z,999.00
2017-06-13T06:24:27.309Z,999.00
2017-06-13T06:25:27.306Z,999.00
2017-06-13T06:26:27.310Z,999.00
2017-06-13T06:27:27.249Z,999.00
2017-06-13T06:28:27.241Z,999.00
2017-06-13T06:29:27.357Z,999.00
2017-06-13T06:30:27.363Z,999.00
2017-06-13T06:31:27.333Z,999.00
2017-06-13T06:32:27.359Z,999.00
2017-06-13T06:33:27.356Z,999.00
2017-06-13T06:34:27.277Z,999.00
2017-06-13T06:35:27.267Z,999.00
2017-06-13T06:36:27.366Z,999.00
2017-06-13T06:37:27.300Z,999.00
2017-06-13T06:38:27.271Z,999.00
2017-06-13T06:39:27.335Z,999.00
2017-06-13T06:40:27.336Z,999.00
2017-06-13T06:41:27.357Z,999.00
2017-06-13T06:42:27.333Z,999.00
2017-06-13T06:43:27.334Z,999.00
2017-06-13T06:44:27.334Z,999.00
2017-06-13T06:45:27.337Z,999.00
2017-06-13T06:46:27.339Z,999.00
2017-06-13T06:47:27.337Z,999.00
2017-06-13T06:48:27.336Z,999.00
2017-06-13T06:49:27.344Z,999.00
2017-06-13T06:50:27.339Z,999.00
2017-06-13T06:51:27.341Z,999.00
2017-06-13T06:52:27.338Z,999.00
2017-06-13T06:53:27.343Z,999.00
2017-06-13T06:54:27.360Z,999.00
2017-06-13T06:55:27.339Z,999.00
2017-06-13T06:56:27.339Z,999.00
2017-06-13T06:57:27.348Z,999.00
2017-06-13T06:58:27.341Z,999.00
2017-06-13T06:59:27.352Z,999.00
2017-06-13T07:00:27.377Z,999.00
2017-06-13T07:01:27.297Z,999.00
2017-06-13T07:02:27.375Z,999.00
2017-06-13T07:03:27.375Z,999.00
2017-06-13T07:04:27.290Z,999.00
2017-06-13T07:05:27.337Z,999.00
2017-06-13T07:06:27.376Z,999.00
2017-06-13T07:07:27.291Z,999.00
2017-06-13T07:08:27.375Z,999.00
2017-06-13T07:09:27.331Z,999.00
2017-06-13T07:10:27.383Z,999.00
2017-06-13T07:11:27.336Z,999.00
2017-06-13T07:12:27.331Z,999.00
2017-06-13T07:13:27.286Z,999.00
2017-06-13T07:14:27.338Z,999.00
2017-06-13T07:15:27.319Z,999.00
2017-06-13T07:16:27.265Z,999.00
2017-06-13T07:17:27.319Z,999.00
2017-06-13T07:18:27.280Z,999.00
2017-06-13T07:19:27.341Z,999.00
2017-06-13T07:20:27.373Z,999.00
2017-06-13T07:21:27.392Z,999.00
2017-06-13T07:22:27.376Z,999.00
2017-06-13T07:23:27.379Z,999.00
2017-06-13T07:24:27.301Z,999.00
2017-06-13T07:25:27.386Z,999.00
2017-06-13T07:26:27.378Z,999.00
2017-06-13T07:27:27.386Z,999.00
2017-06-13T07:28:27.348Z,999.00
2017-06-13T07:29:27.366Z,999.00
2017-06-13T07:30:27.367Z,999.00
2017-06-13T07:31:27.359Z,999.00
2017-06-13T07:32:27.365Z,999.00
2017-06-13T07:33:27.366Z,999.00
2017-06-13T07:34:27.361Z,999.00
2017-06-13T07:35:27.369Z,999.00
2017-06-13T07:36:27.360Z,999.00
2017-06-13T07:37:27.367Z,999.00
2017-06-13T07:38:27.363Z,999.00
2017-06-13T07:39:27.349Z,999.00
2017-06-13T07:40:27.307Z,999.00
2017-06-13T07:41:27.354Z,999.00
2017-06-13T07:42:27.394Z,999.00
2017-06-13T07:43:27.398Z,999.00
2017-06-13T07:44:27.394Z,999.00
2017-06-13T07:45:27.358Z,999.00
2017-06-13T07:46:27.317Z,999.00
2017-06-13T07:47:27.304Z,999.00
2017-06-13T07:48:27.356Z,999.00
2017-06-13T07:49:27.421Z,999.00
2017-06-13T07:50:27.370Z,999.00
2017-06-13T07:51:27.453Z,999.00
2017-06-13T07:52:27.372Z,999.00
2017-06-13T07:53:27.371Z,999.00
2017-06-13T07:54:27.372Z,999.00
2017-06-13T07:55:27.371Z,999.00
2017-06-13T07:56:27.370Z,999.00
2017-06-13T07:57:27.374Z,999.00
2017-06-13T07:58:27.373Z,999.00
2017-06-13T07:59:27.373Z,999.00
2017-06-13T08:00:27.343Z,999.00
2017-06-13T08:01:27.298Z,999.00
2017-06-13T08:02:27.415Z,999.00
2017-06-13T08:03:27.304Z,999.00
2017-06-13T08:04:27.308Z,999.00
2017-06-13T08:05:27.360Z,999.00
2017-06-13T08:06:27.307Z,999.00
2017-06-13T08:07:27.314Z,999.00
2017-06-13T08:08:27.360Z,999.00
2017-06-13T08:09:27.359Z,999.00
2017-06-13T08:10:27.376Z,999.00
2017-06-13T08:11:27.381Z,999.00
2017-06-13T08:12:27.381Z,999.00
2017-06-13T08:13:27.380Z,999.00
2017-06-13T08:14:27.379Z,999.00
2017-06-13T08:15:27.385Z,999.00
2017-06-13T08:16:27.378Z,999.00
2017-06-13T08:17:27.387Z,999.00
2017-06-13T08:18:27.381Z,999.00
2017-06-13T08:19:27.384Z,999.00
2017-06-13T08:20:27.389Z,999.00
2017-06-13T08:21:27.389Z,999.00
2017-06-13T08:22:27.388Z,999.00
2017-06-13T08:23:27.394Z,999.00
2017-06-13T08:24:27.489Z,999.00
2017-06-13T08:25:27.391Z,999.00
2017-06-13T08:26:27.397Z,999.00
2017-06-13T08:27:27.393Z,999.00
2017-06-13T08:28:27.391Z,999.00
2017-06-13T08:29:27.393Z,999.00
2017-06-13T08:30:27.383Z,999.00
2017-06-13T08:31:27.419Z,999.00
2017-06-13T08:32:27.340Z,999.00
2017-06-13T08:33:27.384Z,999.00
2017-06-13T08:34:27.416Z,999.00
2017-06-13T08:35:27.423Z,999.00
2017-06-13T08:36:27.410Z,999.00
2017-06-13T08:37:27.423Z,999.00
2017-06-13T08:38:27.425Z,999.00
2017-06-13T08:39:27.350Z,999.00
2017-06-13T08:40:27.346Z,999.00
2017-06-13T08:41:27.439Z,999.00
2017-06-13T08:42:27.422Z,999.00
2017-06-13T08:43:27.344Z,999.00
2017-06-13T08:44:27.429Z,999.00
2017-06-13T08:45:27.431Z,999.00
2017-06-13T08:46:27.435Z,999.00
2017-06-13T08:47:27.429Z,999.00
2017-06-13T08:48:27.410Z,999.00
2017-06-13T08:49:27.439Z,999.00
2017-06-13T08:50:27.415Z,999.00
2017-06-13T08:51:27.352Z,999.00
2017-06-13T08:52:27.433Z,999.00
2017-06-13T08:53:27.347Z,999.00
2017-06-13T08:54:27.356Z,999.00
2017-06-13T08:55:27.352Z,999.00
2017-06-13T08:56:27.444Z,999.00
2017-06-13T08:57:27.435Z,999.00
2017-06-13T08:58:27.371Z,999.00
2017-06-13T08:59:27.436Z,999.00
2017-06-13T09:00:27.444Z,999.00
2017-06-13T09:01:27.439Z,999.00
2017-06-13T09:02:27.358Z,999.00
2017-06-13T09:03:27.361Z,999.00
2017-06-13T09:04:27.359Z,999.00
2017-06-13T09:05:27.428Z,999.00
2017-06-13T09:06:27.425Z,999.00
2017-06-13T09:07:27.439Z,999.00
2017-06-13T09:08:27.444Z,999.00
2017-06-13T09:09:27.425Z,999.00
2017-06-13T09:10:27.425Z,999.00
2017-06-13T09:11:27.441Z,999.00
2017-06-13T09:12:27.522Z,999.00
2017-06-13T09:13:27.406Z,999.00
2017-06-13T09:14:27.440Z,999.00
2017-06-13T09:15:27.448Z,999.00
2017-06-13T09:16:27.472Z,999.00
2017-06-13T09:17:27.368Z,999.00
2017-06-13T09:18:27.449Z,999.00
2017-06-13T09:19:27.449Z,999.00
2017-06-13T09:20:27.432Z,999.00
2017-06-13T09:21:27.457Z,999.00
2017-06-13T09:22:27.432Z,999.00
2017-06-13T09:23:27.433Z,999.00
2017-06-13T09:24:27.434Z,999.00
2017-06-13T09:25:27.437Z,999.00
2017-06-13T09:26:27.439Z,999.00
2017-06-13T09:27:27.437Z,999.00
2017-06-13T09:28:27.437Z,999.00
2017-06-13T09:29:27.535Z,999.00
2017-06-13T09:30:27.434Z,999.00
2017-06-13T09:31:27.448Z,999.00
2017-06-13T09:32:27.460Z,999.00
2017-06-13T09:33:27.382Z,999.00
2017-06-13T09:34:27.436Z,999.00
2017-06-13T09:35:27.461Z,999.00
2017-06-13T09:36:27.381Z,999.00
2017-06-13T09:37:27.462Z,999.00
2017-06-13T09:38:27.455Z,999.00
2017-06-13T09:39:27.457Z,999.00
2017-06-13T09:40:27.360Z,999.00
2017-06-13T09:41:27.442Z,999.00
2017-06-13T09:42:27.442Z,999.00
2017-06-13T09:43:27.439Z,999.00
2017-06-13T09:44:27.446Z,999.00
2017-06-13T09:45:27.447Z,999.00
2017-06-13T09:46:27.445Z,999.00
2017-06-13T09:47:27.460Z,999.00
2017-06-13T09:48:27.446Z,999.00
2017-06-13T09:49:27.445Z,999.00
2017-06-13T09:50:27.442Z,999.00
2017-06-13T09:51:27.476Z,999.00
2017-06-13T09:52:27.451Z,999.00
2017-06-13T09:53:27.450Z,999.00
2017-06-13T09:54:27.447Z,999.00
2017-06-13T09:55:27.450Z,999.00
2017-06-13T09:56:27.448Z,999.00
2017-06-13T09:57:27.454Z,999.00
2017-06-13T09:58:27.451Z,999.00
2017-06-13T09:59:27.453Z,999.00
2017-06-13T10:00:27.377Z,999.00
2017-06-13T10:01:27.471Z,999.00
2017-06-13T10:02:27.383Z,999.00
2017-06-13T10:03:27.474Z,999.00
2017-06-13T10:04:27.385Z,999.00
2017-06-13T10:05:27.475Z,999.00
2017-06-13T10:06:27.379Z,999.00
2017-06-13T10:07:27.386Z,999.00
2017-06-13T10:08:27.393Z,999.00
2017-06-13T10:09:27.475Z,999.00
2017-06-13T10:10:27.475Z,999.00
2017-06-13T10:11:27.397Z,999.00
2017-06-13T10:12:27.393Z,999.00
2017-06-13T10:13:27.395Z,999.00
2017-06-13T10:14:27.451Z,999.00
2017-06-13T10:15:27.397Z,999.00
2017-06-13T10:16:27.394Z,999.00
2017-06-13T10:17:27.478Z,999.00
2017-06-13T10:18:27.484Z,999.00
2017-06-13T10:19:27.486Z,999.00
2017-06-13T10:20:27.484Z,999.00
2017-06-13T10:21:27.494Z,999.00
2017-06-13T10:22:27.460Z,999.00
2017-06-13T10:23:27.395Z,999.00
2017-06-13T10:24:27.515Z,999.00
2017-06-13T10:25:27.405Z,999.00
2017-06-13T10:26:27.485Z,999.00
2017-06-13T10:27:27.464Z,999.00
2017-06-13T10:28:27.487Z,999.00
2017-06-13T10:29:27.477Z,999.00
2017-06-13T10:30:27.466Z,999.00
2017-06-13T10:31:27.466Z,999.00
2017-06-13T10:32:27.485Z,999.00
2017-06-13T10:33:27.451Z,999.00
2017-06-13T10:34:27.467Z,999.00
2017-06-13T10:35:27.500Z,999.00
2017-06-13T10:36:27.408Z,999.00
2017-06-13T10:37:27.484Z,999.00
2017-06-13T10:38:27.417Z,999.00
2017-06-13T10:39:27.597Z,999.00
2017-06-13T10:40:27.478Z,999.00
2017-06-13T10:41:27.476Z,999.00
2017-06-13T10:42:27.473Z,999.00
2017-06-13T10:43:27.474Z,999.00
2017-06-13T10:44:27.476Z,999.00
2017-06-13T10:45:27.480Z,999.00
2017-06-13T10:46:27.476Z,999.00
2017-06-13T10:47:27.487Z,999.00
2017-06-13T10:48:27.477Z,999.00
2017-06-13T10:49:27.484Z,999.00
2017-06-13T10:50:27.478Z,999.00
2017-06-13T10:52:27.416Z,999.00
2017-06-13T10:53:27.415Z,999.00
2017-06-13T10:54:27.477Z,999.00
2017-06-13T10:55:27.503Z,999.00
2017-06-13T10:56:27.412Z,999.00
2017-06-13T10:57:27.509Z,999.00
2017-06-13T10:58:27.416Z,999.00
2017-06-13T10:59:27.424Z,999.00
2017-06-13T11:00:27.414Z,999.00
2017-06-13T11:01:27.501Z,999.00
2017-06-13T11:02:27.503Z,999.00
2017-06-13T11:03:27.505Z,999.00
2017-06-13T11:04:27.507Z,999.00
2017-06-13T11:05:27.501Z,999.00
2017-06-13T11:06:27.481Z,999.00
2017-06-13T11:07:27.565Z,999.00
2017-06-13T11:08:27.506Z,999.00
2017-06-13T11:09:27.501Z,999.00
2017-06-13T11:10:27.509Z,999.00
2017-06-13T11:11:27.509Z,999.00
2017-06-13T11:12:27.513Z,999.00
2017-06-13T11:13:27.514Z,999.00
2017-06-13T11:14:27.516Z,999.00
2017-06-13T11:15:27.518Z,999.00
2017-06-13T11:16:27.430Z,999.00
2017-06-13T11:17:27.514Z,999.00
2017-06-13T11:18:27.423Z,999.00
2017-06-13T11:19:27.513Z,999.00
2017-06-13T11:20:27.522Z,999.00
2017-06-13T11:21:27.482Z,999.00
2017-06-13T11:22:27.487Z,999.00
2017-06-13T11:23:27.482Z,999.00
2017-06-13T11:24:27.488Z,999.00
2017-06-13T11:25:27.486Z,999.00
2017-06-13T11:26:27.487Z,999.00
2017-06-13T11:27:27.488Z,999.00
2017-06-13T11:28:27.490Z,999.00
2017-06-13T11:29:27.492Z,999.00
2017-06-13T11:30:27.488Z,999.00
2017-06-13T11:31:27.523Z,999.00
2017-06-13T11:32:27.513Z,999.00
2017-06-13T11:33:27.522Z,999.00
2017-06-13T11:34:27.518Z,999.00
2017-06-13T11:35:27.480Z,999.00
2017-06-13T11:36:27.517Z,999.00
2017-06-13T11:37:27.517Z,999.00
2017-06-13T11:38:27.444Z,999.00
2017-06-13T11:39:27.519Z,999.00
2017-06-13T11:40:27.442Z,999.00
2017-06-13T11:41:27.468Z,999.00
2017-06-13T11:42:27.442Z,999.00
2017-06-13T11:43:27.440Z,999.00
2017-06-13T11:44:27.539Z,999.00
2017-06-13T11:45:27.528Z,999.00
2017-06-13T11:46:27.505Z,999.00
2017-06-13T11:47:27.528Z,999.00
2017-06-13T11:48:27.531Z,999.00
2017-06-13T11:49:27.536Z,999.00
2017-06-13T11:50:27.446Z,999.00
2017-06-13T11:51:27.528Z,999.00
2017-06-13T11:52:27.509Z,999.00
2017-06-13T11:53:27.443Z,999.00
2017-06-13T11:54:27.527Z,999.00
2017-06-13T11:55:27.526Z,999.00
2017-06-13T11:56:27.543Z,999.00
2017-06-13T11:57:27.535Z,999.00
2017-06-13T11:58:27.537Z,999.00
2017-06-13T11:59:27.495Z,999.00
2017-06-13T12:00:27.541Z,999.00
2017-06-13T12:01:27.504Z,999.00
2017-06-13T12:02:27.505Z,999.00
2017-06-13T12:03:27.508Z,999.00
2017-06-13T12:04:27.505Z,999.00
2017-06-13T12:05:27.607Z,999.00
2017-06-13T12:06:27.510Z,999.00
2017-06-13T12:07:27.507Z,999.00
2017-06-13T12:08:27.507Z,999.00
2017-06-13T12:09:27.509Z,999.00
2017-06-13T12:10:27.508Z,999.00
2017-06-13T12:11:27.519Z,999.00
2017-06-13T12:12:27.517Z,999.00
2017-06-13T12:13:27.466Z,999.00
2017-06-13T12:14:27.467Z,999.00
2017-06-13T12:15:27.545Z,999.00
2017-06-13T12:16:27.462Z,999.00
2017-06-13T12:17:27.545Z,999.00
2017-06-13T12:18:27.546Z,999.00
2017-06-13T12:19:27.541Z,999.00
2017-06-13T12:20:27.469Z,999.00
2017-06-13T12:21:27.518Z,999.00
2017-06-13T12:22:27.516Z,999.00
2017-06-13T12:23:27.518Z,999.00
2017-06-13T12:24:27.520Z,999.00
2017-06-13T12:25:27.519Z,999.00
2017-06-13T12:26:27.519Z,999.00
2017-06-13T12:27:27.519Z,999.00
2017-06-13T12:28:27.519Z,999.00
2017-06-13T12:29:27.522Z,999.00
2017-06-13T12:30:27.520Z,999.00
2017-06-13T12:31:27.529Z,999.00
2017-06-13T12:32:27.551Z,999.00
2017-06-13T12:33:27.529Z,999.00
2017-06-13T12:34:27.560Z,999.00
2017-06-13T12:35:27.553Z,999.00
2017-06-13T12:36:27.550Z,999.00
2017-06-13T12:37:27.469Z,999.00
2017-06-13T12:38:27.552Z,999.00
2017-06-13T12:39:27.473Z,999.00
2017-06-13T12:40:27.537Z,999.00